sensor_id;sensor_type;location;lat;lon;timestamp;pressure;altitude;pressure_sealevel;temperature;humidity
26865;BME280;40618;51.166;10.322;2023-04-01T00:01:10;95561.72;;;7.67;85.11
26865;BME280;40618;51.166;10.322;2023-04-01T00:03:41;95562.56;;;7.68;84.35
26865;BME280;40618;51.166;10.322;2023-04-01T00:06:07;95552.34;;;7.66;85.02
26865;BME280;40618;51.166;10.322;2023-04-01T00:08:34;95557.47;;;7.66;85.18
26865;BME280;40618;51.166;10.322;2023-04-01T00:11:00;95554.00;;;7.67;84.53
26865;BME280;40618;51.166;10.322;2023-04-01T00:13:26;95551.50;;;7.66;85.41
26865;BME280;40618;51.166;10.322;2023-04-01T00:15:53;95553.22;;;7.65;84.35
26865;BME280;40618;51.166;10.322;2023-04-01T00:18:19;95548.16;;;7.63;84.82
26865;BME280;40618;51.166;10.322;2023-04-01T00:20:47;95538.75;;;7.62;85.30
26865;BME280;40618;51.166;10.322;2023-04-01T00:23:14;95549.06;;;7.62;85.05
26865;BME280;40618;51.166;10.322;2023-04-01T00:25:40;95543.88;;;7.64;84.92
26865;BME280;40618;51.166;10.322;2023-04-01T00:28:06;95535.28;;;7.63;85.13
26865;BME280;40618;51.166;10.322;2023-04-01T00:30:32;95537.94;;;7.62;84.55
26865;BME280;40618;51.166;10.322;2023-04-01T00:32:57;95540.50;;;7.62;84.71
26865;BME280;40618;51.166;10.322;2023-04-01T00:35:23;95543.16;;;7.60;84.87
26865;BME280;40618;51.166;10.322;2023-04-01T00:37:49;95535.53;;;7.59;84.54
26865;BME280;40618;51.166;10.322;2023-04-01T00:43:03;95539.06;;;7.56;84.48
26865;BME280;40618;51.166;10.322;2023-04-01T00:45:37;95531.34;;;7.56;84.90
26865;BME280;40618;51.166;10.322;2023-04-01T00:48:17;95533.22;;;7.53;84.43
26865;BME280;40618;51.166;10.322;2023-04-01T00:51:13;95528.97;;;7.52;84.54
26865;BME280;40618;51.166;10.322;2023-04-01T00:53:58;95527.34;;;7.51;84.61
26865;BME280;40618;51.166;10.322;2023-04-01T00:56:35;95536.78;;;7.50;84.73
26865;BME280;40618;51.166;10.322;2023-04-01T00:59:08;95530.88;;;7.48;85.13
26865;BME280;40618;51.166;10.322;2023-04-01T01:01:38;95535.25;;;7.46;85.12
26865;BME280;40618;51.166;10.322;2023-04-01T01:04:04;95535.34;;;7.44;84.28
26865;BME280;40618;51.166;10.322;2023-04-01T01:06:50;95529.44;;;7.42;84.83
26865;BME280;40618;51.166;10.322;2023-04-01T01:12:12;95528.53;;;7.43;85.11
26865;BME280;40618;51.166;10.322;2023-04-01T01:14:57;95535.34;;;7.44;84.83
26865;BME280;40618;51.166;10.322;2023-04-01T01:38:00;95532.03;;;7.42;84.94
26865;BME280;40618;51.166;10.322;2023-04-01T01:40:30;95523.44;;;7.42;84.55
26865;BME280;40618;51.166;10.322;2023-04-01T01:43:04;95536.31;;;7.42;85.07
26865;BME280;40618;51.166;10.322;2023-04-01T01:45:34;95528.59;;;7.42;84.98
26865;BME280;40618;51.166;10.322;2023-04-01T01:48:04;95532.09;;;7.41;84.96
26865;BME280;40618;51.166;10.322;2023-04-01T01:50:32;95530.59;;;7.37;84.82
26865;BME280;40618;51.166;10.322;2023-04-01T01:53:09;95522.91;;;7.35;84.88
26865;BME280;40618;51.166;10.322;2023-04-01T01:55:39;95530.72;;;7.34;84.52
26865;BME280;40618;51.166;10.322;2023-04-01T01:58:22;95530.78;;;7.32;85.36
26865;BME280;40618;51.166;10.322;2023-04-01T02:00:58;95533.50;;;7.29;84.60
26865;BME280;40618;51.166;10.322;2023-04-01T02:03:29;95526.69;;;7.28;84.66
26865;BME280;40618;51.166;10.322;2023-04-01T02:05:59;95524.19;;;7.26;84.41
26865;BME280;40618;51.166;10.322;2023-04-01T02:08:35;95525.09;;;7.25;84.76
26865;BME280;40618;51.166;10.322;2023-04-01T02:11:07;95532.06;;;7.23;85.04
26865;BME280;40618;51.166;10.322;2023-04-01T02:16:33;95529.63;;;7.20;85.59
26865;BME280;40618;51.166;10.322;2023-04-01T02:19:02;95538.19;;;7.21;85.33
26865;BME280;40618;51.166;10.322;2023-04-01T02:21:33;95528.81;;;7.20;85.21
26865;BME280;40618;51.166;10.322;2023-04-01T02:24:02;95525.47;;;7.18;85.03
26865;BME280;40618;51.166;10.322;2023-04-01T02:26:31;95528.97;;;7.17;84.70
26865;BME280;40618;51.166;10.322;2023-04-01T02:28:58;95528.97;;;7.17;84.95
26865;BME280;40618;51.166;10.322;2023-04-01T02:31:27;95533.31;;;7.15;84.81
26865;BME280;40618;51.166;10.322;2023-04-01T02:33:54;95533.31;;;7.15;84.81
26865;BME280;40618;51.166;10.322;2023-04-01T02:36:20;95533.31;;;7.15;85.26
26865;BME280;40618;51.166;10.322;2023-04-01T02:38:46;95528.97;;;7.17;84.89
26865;BME280;40618;51.166;10.322;2023-04-01T02:41:14;95532.34;;;7.17;84.89
26865;BME280;40618;51.166;10.322;2023-04-01T02:43:40;95528.09;;;7.16;84.97
26865;BME280;40618;51.166;10.322;2023-04-01T02:46:06;95530.00;;;7.13;85.27
26865;BME280;40618;51.166;10.322;2023-04-01T02:48:31;95529.09;;;7.14;85.18
26865;BME280;40618;51.166;10.322;2023-04-01T02:50:57;95531.69;;;7.14;85.59
26865;BME280;40618;51.166;10.322;2023-04-01T02:53:23;95535.16;;;7.13;85.35
26865;BME280;40618;51.166;10.322;2023-04-01T02:55:48;95532.59;;;7.13;85.80
26865;BME280;40618;51.166;10.322;2023-04-01T02:58:17;95531.72;;;7.12;84.88
26865;BME280;40618;51.166;10.322;2023-04-01T03:00:42;95523.34;;;7.08;85.32
26865;BME280;40618;51.166;10.322;2023-04-01T03:03:08;95529.38;;;7.07;85.45
26865;BME280;40618;51.166;10.322;2023-04-01T03:05:40;95540.56;;;7.06;85.88
26865;BME280;40618;51.166;10.322;2023-04-01T03:08:05;95537.94;;;7.08;85.86
26865;BME280;40618;51.166;10.322;2023-04-01T03:10:31;95539.69;;;7.07;85.58
26865;BME280;40618;51.166;10.322;2023-04-01T03:12:57;95539.69;;;7.07;85.14
26865;BME280;40618;51.166;10.322;2023-04-01T03:15:22;95530.97;;;7.10;85.65
26865;BME280;40618;51.166;10.322;2023-04-01T03:17:48;95535.31;;;7.09;85.28
26865;BME280;40618;51.166;10.322;2023-04-01T03:20:14;95536.13;;;7.10;84.94
26865;BME280;40618;51.166;10.322;2023-04-01T03:22:40;95542.03;;;7.12;85.47
26865;BME280;40618;51.166;10.322;2023-04-01T03:25:06;95536.06;;;7.11;85.72
26865;BME280;40618;51.166;10.322;2023-04-01T03:27:34;95534.38;;;7.10;85.14
26865;BME280;40618;51.166;10.322;2023-04-01T03:30:04;95532.78;;;7.08;85.84
26865;BME280;40618;51.166;10.322;2023-04-01T03:32:30;95526.06;;;7.05;85.37
26865;BME280;40618;51.166;10.322;2023-04-01T03:34:56;95544.06;;;7.05;84.96
26865;BME280;40618;51.166;10.322;2023-04-01T03:37:23;95538.97;;;7.04;85.48
26865;BME280;40618;51.166;10.322;2023-04-01T03:39:50;95537.41;;;7.01;85.15
26865;BME280;40618;51.166;10.322;2023-04-01T03:42:15;95540.09;;;6.98;85.29
26865;BME280;40618;51.166;10.322;2023-04-01T03:44:41;95538.44;;;6.97;85.50
26865;BME280;40618;51.166;10.322;2023-04-01T03:47:07;95532.38;;;6.98;85.09
26865;BME280;40618;51.166;10.322;2023-04-01T03:49:34;95530.59;;;7.00;85.42
26865;BME280;40618;51.166;10.322;2023-04-01T03:52:00;95529.81;;;6.98;85.36
26865;BME280;40618;51.166;10.322;2023-04-01T03:54:26;95534.06;;;6.99;85.52
26865;BME280;40618;51.166;10.322;2023-04-01T03:56:51;95534.06;;;6.99;85.16
26865;BME280;40618;51.166;10.322;2023-04-01T03:59:17;95540.03;;;7.00;85.52
26865;BME280;40618;51.166;10.322;2023-04-01T04:01:43;95549.56;;;6.98;85.80
26865;BME280;40618;51.166;10.322;2023-04-01T04:04:11;95545.31;;;6.97;85.13
26865;BME280;40618;51.166;10.322;2023-04-01T04:06:38;95545.31;;;6.97;85.27
26865;BME280;40618;51.166;10.322;2023-04-01T04:09:03;95546.19;;;6.97;85.64
26865;BME280;40618;51.166;10.322;2023-04-01T04:11:30;95544.34;;;6.99;85.12
26865;BME280;40618;51.166;10.322;2023-04-01T04:13:57;95543.53;;;6.99;85.79
26865;BME280;40618;51.166;10.322;2023-04-01T04:16:23;95537.53;;;6.98;85.40
26865;BME280;40618;51.166;10.322;2023-04-01T04:18:49;95552.13;;;6.98;85.20
26865;BME280;40618;51.166;10.322;2023-04-01T04:21:16;95552.97;;;6.98;85.28
26865;BME280;40618;51.166;10.322;2023-04-01T04:23:42;95559.03;;;6.97;85.46
26865;BME280;40618;51.166;10.322;2023-04-01T04:26:11;95553.03;;;6.97;84.86
26865;BME280;40618;51.166;10.322;2023-04-01T04:28:39;95553.13;;;6.95;85.43
26865;BME280;40618;51.166;10.322;2023-04-01T04:31:06;95555.75;;;6.93;85.23
26865;BME280;40618;51.166;10.322;2023-04-01T04:33:33;95559.16;;;6.94;85.15
26865;BME280;40618;51.166;10.322;2023-04-01T04:36:00;95554.94;;;6.93;85.81
26865;BME280;40618;51.166;10.322;2023-04-01T04:38:26;95560.09;;;6.93;85.39
26865;BME280;40618;51.166;10.322;2023-04-01T04:40:52;95565.28;;;6.91;85.48
26865;BME280;40618;51.166;10.322;2023-04-01T04:43:19;95567.84;;;6.91;85.92
26865;BME280;40618;51.166;10.322;2023-04-01T04:45:45;95560.22;;;6.90;85.89
26865;BME280;40618;51.166;10.322;2023-04-01T04:48:15;95569.59;;;6.91;85.14
26865;BME280;40618;51.166;10.322;2023-04-01T04:50:50;95568.78;;;6.90;85.71
26865;BME280;40618;51.166;10.322;2023-04-01T04:53:19;95569.59;;;6.91;85.83
26865;BME280;40618;51.166;10.322;2023-04-01T04:55:46;95570.50;;;6.90;85.38
26865;BME280;40618;51.166;10.322;2023-04-01T04:58:13;95565.50;;;6.87;85.51
26865;BME280;40618;51.166;10.322;2023-04-01T05:00:39;95571.47;;;6.87;85.53
26865;BME280;40618;51.166;10.322;2023-04-01T05:03:05;95569.75;;;6.88;85.31
26865;BME280;40618;51.166;10.322;2023-04-01T05:05:30;95574.81;;;6.89;85.24
26865;BME280;40618;51.166;10.322;2023-04-01T05:07:56;95573.97;;;6.89;85.90
26865;BME280;40618;51.166;10.322;2023-04-01T05:10:22;95577.31;;;6.91;85.83
26865;BME280;40618;51.166;10.322;2023-04-01T05:12:47;95576.41;;;6.92;85.33
26865;BME280;40618;51.166;10.322;2023-04-01T05:15:13;95579.06;;;6.90;85.61
26865;BME280;40618;51.166;10.322;2023-04-01T05:17:40;95579.97;;;6.89;85.44
26865;BME280;40618;51.166;10.322;2023-04-01T05:20:06;95574.91;;;6.88;85.63
26865;BME280;40618;51.166;10.322;2023-04-01T05:22:32;95573.38;;;6.84;85.64
26865;BME280;40618;51.166;10.322;2023-04-01T05:24:58;95577.53;;;6.86;85.29
26865;BME280;40618;51.166;10.322;2023-04-01T05:27:24;95581.75;;;6.87;85.33
26865;BME280;40618;51.166;10.322;2023-04-01T05:29:49;95573.16;;;6.88;85.41
26865;BME280;40618;51.166;10.322;2023-04-01T05:32:15;95573.06;;;6.90;85.56
26865;BME280;40618;51.166;10.322;2023-04-01T05:34:41;95576.41;;;6.92;85.57
26865;BME280;40618;51.166;10.322;2023-04-01T05:37:07;95578.13;;;6.91;85.33
26865;BME280;40618;51.166;10.322;2023-04-01T05:39:39;95570.41;;;6.91;85.46
26865;BME280;40618;51.166;10.322;2023-04-01T05:42:05;95573.84;;;6.92;85.55
26865;BME280;40618;51.166;10.322;2023-04-01T05:44:32;95573.84;;;6.92;85.69
26865;BME280;40618;51.166;10.322;2023-04-01T05:46:58;95581.50;;;6.93;85.45
26865;BME280;40618;51.166;10.322;2023-04-01T05:49:23;95576.34;;;6.93;85.80
26865;BME280;40618;51.166;10.322;2023-04-01T05:51:49;95584.00;;;6.95;85.70
26865;BME280;40618;51.166;10.322;2023-04-01T05:54:16;95579.66;;;6.95;85.60
26865;BME280;40618;51.166;10.322;2023-04-01T05:56:42;95585.53;;;6.99;85.67
26865;BME280;40618;51.166;10.322;2023-04-01T05:59:10;95576.91;;;7.00;85.49
26865;BME280;40618;51.166;10.322;2023-04-01T06:01:36;95582.94;;;6.99;85.58
26865;BME280;40618;51.166;10.322;2023-04-01T06:04:02;95579.56;;;6.99;85.14
26865;BME280;40618;51.166;10.322;2023-04-01T06:06:30;95578.69;;;6.98;85.55
26865;BME280;40618;51.166;10.322;2023-04-01T06:09:12;95577.94;;;6.96;85.00
26865;BME280;40618;51.166;10.322;2023-04-01T06:20:26;95591.72;;;6.95;85.08
26865;BME280;40618;51.166;10.322;2023-04-01T06:26:27;95583.28;;;6.91;85.66
26865;BME280;40618;51.166;10.322;2023-04-01T06:37:54;95595.09;;;6.95;85.85
26865;BME280;40618;51.166;10.322;2023-04-01T06:46:45;95599.34;;;6.97;85.49
26865;BME280;40618;51.166;10.322;2023-04-01T06:52:31;95603.69;;;6.96;86.08
26865;BME280;40618;51.166;10.322;2023-04-01T06:55:53;95607.00;;;6.98;85.48
26865;BME280;40618;51.166;10.322;2023-04-01T06:58:53;95609.56;;;6.98;85.88
26865;BME280;40618;51.166;10.322;2023-04-01T07:01:35;95605.22;;;7.00;85.29
26865;BME280;40618;51.166;10.322;2023-04-01T07:04:26;95602.63;;;7.00;85.50
26865;BME280;40618;51.166;10.322;2023-04-01T07:07:06;95602.56;;;7.02;85.75
26865;BME280;40618;51.166;10.322;2023-04-01T07:09:48;95603.31;;;7.04;85.94
26865;BME280;40618;51.166;10.322;2023-04-01T07:15:17;95615.34;;;7.03;85.59
26865;BME280;40618;51.166;10.322;2023-04-01T07:17:45;95616.97;;;7.06;85.75
26865;BME280;40618;51.166;10.322;2023-04-01T07:23:00;95611.75;;;7.07;85.63
26865;BME280;40618;51.166;10.322;2023-04-01T07:25:35;95618.50;;;7.10;86.10
26865;BME280;40618;51.166;10.322;2023-04-01T07:28:12;95611.59;;;7.10;85.15
26865;BME280;40618;51.166;10.322;2023-04-01T07:34:34;95619.22;;;7.12;85.55
26865;BME280;40618;51.166;10.322;2023-04-01T07:49:01;95617.66;;;7.09;85.98
26865;BME280;40618;51.166;10.322;2023-04-01T07:52:04;95622.66;;;7.13;85.43
26865;BME280;40618;51.166;10.322;2023-04-01T07:57:25;95623.50;;;7.13;85.62
26865;BME280;40618;51.166;10.322;2023-04-01T08:00:24;95629.50;;;7.14;85.31
26865;BME280;40618;51.166;10.322;2023-04-01T08:03:21;95627.03;;;7.10;85.11
26865;BME280;40618;51.166;10.322;2023-04-01T08:06:58;95630.47;;;7.11;85.14
26865;BME280;40618;51.166;10.322;2023-04-01T08:09:21;95626.97;;;7.12;85.87
26865;BME280;40618;51.166;10.322;2023-04-01T08:15:41;95629.59;;;7.10;85.59
26865;BME280;40618;51.166;10.322;2023-04-01T08:18:28;95639.16;;;7.08;85.29
26865;BME280;40618;51.166;10.322;2023-04-01T08:21:38;95628.16;;;7.05;85.41
26865;BME280;40618;51.166;10.322;2023-04-01T08:24:29;95634.19;;;7.04;85.48
26865;BME280;40618;51.166;10.322;2023-04-01T08:30:24;95632.31;;;7.07;86.05
26865;BME280;40618;51.166;10.322;2023-04-01T08:36:03;95635.78;;;7.06;85.92
26865;BME280;40618;51.166;10.322;2023-04-01T08:38:46;95639.22;;;7.07;85.98
26865;BME280;40618;51.166;10.322;2023-04-01T08:50:24;95636.66;;;7.07;85.98
26865;BME280;40618;51.166;10.322;2023-04-01T08:53:15;95640.13;;;7.06;86.80
26865;BME280;40618;51.166;10.322;2023-04-01T08:58:50;95637.41;;;7.09;85.99
26865;BME280;40618;51.166;10.322;2023-04-01T09:23:14;95653.44;;;7.52;86.86
26865;BME280;40618;51.166;10.322;2023-04-01T09:38:21;95668.69;;;7.57;87.47
26865;BME280;40618;51.166;10.322;2023-04-01T09:41:31;95671.13;;;7.60;86.99
26865;BME280;40618;51.166;10.322;2023-04-01T09:44:05;95668.47;;;7.61;86.53
26865;BME280;40618;51.166;10.322;2023-04-01T09:49:49;95676.13;;;7.63;86.53
26865;BME280;40618;51.166;10.322;2023-04-01T09:52:37;95677.84;;;7.62;86.57
26865;BME280;40618;51.166;10.322;2023-04-01T10:10:41;95686.91;;;7.71;86.74
26865;BME280;40618;51.166;10.322;2023-04-01T10:13:48;95691.09;;;7.74;86.95
26865;BME280;40618;51.166;10.322;2023-04-01T10:19:38;95688.13;;;7.82;86.54
26865;BME280;40618;51.166;10.322;2023-04-01T10:25:15;95687.50;;;7.95;87.28
26865;BME280;40618;51.166;10.322;2023-04-01T10:28:08;95684.91;;;7.95;86.80
26865;BME280;40618;51.166;10.322;2023-04-01T10:34:11;95685.97;;;8.09;86.77
26865;BME280;40618;51.166;10.322;2023-04-01T10:37:20;95689.88;;;8.18;87.40
26865;BME280;40618;51.166;10.322;2023-04-01T10:43:37;95691.22;;;8.25;86.90
26865;BME280;40618;51.166;10.322;2023-04-01T10:46:05;95682.34;;;8.30;87.09
26865;BME280;40618;51.166;10.322;2023-04-01T10:49:06;95685.47;;;8.37;87.60
26865;BME280;40618;51.166;10.322;2023-04-01T11:21:35;95691.72;;;8.51;86.27
26865;BME280;40618;51.166;10.322;2023-04-01T11:27:47;95690.81;;;8.52;86.98
26865;BME280;40618;51.166;10.322;2023-04-01T11:33:36;95695.28;;;8.48;86.77
26865;BME280;40618;51.166;10.322;2023-04-01T11:39:20;95699.38;;;8.52;86.62
26865;BME280;40618;51.166;10.322;2023-04-01T11:42:18;95706.13;;;8.55;86.44
26865;BME280;40618;51.166;10.322;2023-04-01T11:48:38;95710.44;;;8.54;86.10
26865;BME280;40618;51.166;10.322;2023-04-01T11:51:21;95712.19;;;8.54;86.20
26865;BME280;40618;51.166;10.322;2023-04-01T11:54:41;95723.84;;;8.61;86.40
26865;BME280;40618;51.166;10.322;2023-04-01T12:00:14;95718.41;;;8.67;86.30
26865;BME280;40618;51.166;10.322;2023-04-01T12:08:44;95728.47;;;8.72;86.19
26865;BME280;40618;51.166;10.322;2023-04-01T12:11:52;95724.09;;;8.74;86.67
26865;BME280;40618;51.166;10.322;2023-04-01T12:15:00;95722.19;;;8.77;87.01
26865;BME280;40618;51.166;10.322;2023-04-01T12:18:17;95724.75;;;8.77;86.81
26865;BME280;40618;51.166;10.322;2023-04-01T12:21:00;95729.19;;;8.75;86.66
26865;BME280;40618;51.166;10.322;2023-04-01T12:26:30;95736.09;;;8.75;86.87
26865;BME280;40618;51.166;10.322;2023-04-01T12:35:21;95741.47;;;8.70;86.51
26865;BME280;40618;51.166;10.322;2023-04-01T12:38:51;95740.47;;;8.73;86.20
26865;BME280;40618;51.166;10.322;2023-04-01T12:41:47;95732.19;;;8.84;87.17
26865;BME280;40618;51.166;10.322;2023-04-01T12:54:55;95741.44;;;9.21;86.98
26865;BME280;40618;51.166;10.322;2023-04-01T13:02:59;95747.47;;;9.22;86.45
26865;BME280;40618;51.166;10.322;2023-04-01T13:08:52;95741.97;;;9.12;86.85
26865;BME280;40618;51.166;10.322;2023-04-01T13:15:24;95746.31;;;8.94;86.83
26865;BME280;40618;51.166;10.322;2023-04-01T13:26:21;95759.59;;;8.86;86.52
26865;BME280;40618;51.166;10.322;2023-04-01T13:31:55;95774.66;;;8.78;86.77
26865;BME280;40618;51.166;10.322;2023-04-01T13:50:07;95783.47;;;8.37;87.21
26865;BME280;40618;51.166;10.322;2023-04-01T13:55:56;95776.75;;;8.52;87.29
26865;BME280;40618;51.166;10.322;2023-04-01T14:01:41;95777.59;;;8.70;87.66
26865;BME280;40618;51.166;10.322;2023-04-01T14:09:57;95788.09;;;8.85;87.80
26865;BME280;40618;51.166;10.322;2023-04-01T14:12:42;95784.72;;;8.83;87.69
26865;BME280;40618;51.166;10.322;2023-04-01T14:18:13;95792.47;;;8.83;87.44
26865;BME280;40618;51.166;10.322;2023-04-01T14:39:24;95803.59;;;9.18;87.89
26865;BME280;40618;51.166;10.322;2023-04-01T14:42:18;95796.91;;;9.14;87.96
26865;BME280;40618;51.166;10.322;2023-04-01T14:45:26;95801.09;;;9.17;88.42
26865;BME280;40618;51.166;10.322;2023-04-01T14:48:23;95801.88;;;9.19;87.67
26865;BME280;40618;51.166;10.322;2023-04-01T14:50:53;95811.25;;;9.20;88.13
26865;BME280;40618;51.166;10.322;2023-04-01T14:53:36;95806.09;;;9.20;87.46
26865;BME280;40618;51.166;10.322;2023-04-01T14:56:07;95808.84;;;9.17;87.33
26865;BME280;40618;51.166;10.322;2023-04-01T14:58:47;95806.50;;;9.12;87.20
26865;BME280;40618;51.166;10.322;2023-04-01T15:01:46;95805.81;;;9.08;87.35
26865;BME280;40618;51.166;10.322;2023-04-01T15:04:47;95816.38;;;9.04;87.22
26865;BME280;40618;51.166;10.322;2023-04-01T15:13:10;95819.44;;;8.94;87.20
26865;BME280;40618;51.166;10.322;2023-04-01T15:18:44;95830.56;;;8.95;87.40
26865;BME280;40618;51.166;10.322;2023-04-01T15:21:23;95834.09;;;8.94;87.53
26865;BME280;40618;51.166;10.322;2023-04-01T15:27:09;95843.63;;;8.92;87.60
26865;BME280;40618;51.166;10.322;2023-04-01T15:29:56;95844.41;;;8.94;87.45
26865;BME280;40618;51.166;10.322;2023-04-01T15:38:48;95855.66;;;8.93;87.70
26865;BME280;40618;51.166;10.322;2023-04-01T15:41:16;95855.72;;;8.91;88.29
26865;BME280;40618;51.166;10.322;2023-04-01T15:43:49;95856.72;;;8.89;87.81
26865;BME280;40618;51.166;10.322;2023-04-01T16:06:41;95881.81;;;8.85;88.12
26865;BME280;40618;51.166;10.322;2023-04-01T16:09:35;95884.63;;;8.80;87.79
26865;BME280;40618;51.166;10.322;2023-04-01T16:12:19;95891.53;;;8.80;87.87
26865;BME280;40618;51.166;10.322;2023-04-01T16:15:44;95888.13;;;8.79;88.09
26865;BME280;40618;51.166;10.322;2023-04-01T16:24:22;95899.97;;;8.84;87.71
26865;BME280;40618;51.166;10.322;2023-04-01T16:27:20;95892.22;;;8.84;87.46
26865;BME280;40618;51.166;10.322;2023-04-01T16:30:00;95903.38;;;8.84;88.24
26865;BME280;40618;51.166;10.322;2023-04-01T16:32:35;95904.16;;;8.86;87.97
26865;BME280;40618;51.166;10.322;2023-04-01T16:35:22;95905.84;;;8.87;87.87
26865;BME280;40618;51.166;10.322;2023-04-01T16:38:23;95905.59;;;8.92;88.25
26865;BME280;40618;51.166;10.322;2023-04-01T16:41:16;95901.22;;;8.94;87.95
26865;BME280;40618;51.166;10.322;2023-04-01T16:43:55;95902.78;;;8.96;88.15
26865;BME280;40618;51.166;10.322;2023-04-01T16:46:34;95912.03;;;9.01;88.57
26865;BME280;40618;51.166;10.322;2023-04-01T16:51:48;95930.06;;;9.02;87.82
26865;BME280;40618;51.166;10.322;2023-04-01T16:59:47;95934.47;;;9.00;87.92
26865;BME280;40618;51.166;10.322;2023-04-01T17:02:27;95930.97;;;9.01;87.77
26865;BME280;40618;51.166;10.322;2023-04-01T17:05:08;95935.44;;;8.97;88.34
26865;BME280;40618;51.166;10.322;2023-04-01T17:10:25;95943.25;;;8.96;88.01
26865;BME280;40618;51.166;10.322;2023-04-01T17:16:24;95950.25;;;8.94;87.77
26865;BME280;40618;51.166;10.322;2023-04-01T17:42:26;95989.19;;;8.70;87.76
26865;BME280;40618;51.166;10.322;2023-04-01T17:45:04;95995.13;;;8.72;88.33
26865;BME280;40618;51.166;10.322;2023-04-01T17:48:14;96000.28;;;8.72;88.09
26865;BME280;40618;51.166;10.322;2023-04-01T17:53:56;96003.78;;;8.71;88.17
26865;BME280;40618;51.166;10.322;2023-04-01T17:56:54;96010.63;;;8.72;87.98
26865;BME280;40618;51.166;10.322;2023-04-01T18:03:17;96018.91;;;8.79;88.53
26865;BME280;40618;51.166;10.322;2023-04-01T18:06:03;96026.09;;;8.72;88.00
26865;BME280;40618;51.166;10.322;2023-04-01T18:12:04;96023.72;;;8.68;88.54
26865;BME280;40618;51.166;10.322;2023-04-01T18:23:36;96050.22;;;8.71;88.19
26865;BME280;40618;51.166;10.322;2023-04-01T18:26:28;96052.75;;;8.73;88.32
26865;BME280;40618;51.166;10.322;2023-04-01T18:29:46;96058.69;;;8.75;88.34
26865;BME280;40618;51.166;10.322;2023-04-01T18:32:19;96057.91;;;8.73;88.74
26865;BME280;40618;51.166;10.322;2023-04-01T18:35:19;96067.47;;;8.71;88.38
26865;BME280;40618;51.166;10.322;2023-04-01T18:37:58;96067.31;;;8.74;88.56
26865;BME280;40618;51.166;10.322;2023-04-01T18:49:39;96086.28;;;8.73;88.24
26865;BME280;40618;51.166;10.322;2023-04-01T18:52:36;96099.13;;;8.74;88.51
26865;BME280;40618;51.166;10.322;2023-04-01T19:00:47;96104.34;;;8.73;88.43
26865;BME280;40618;51.166;10.322;2023-04-01T19:03:23;96110.34;;;8.73;88.64
26865;BME280;40618;51.166;10.322;2023-04-01T19:06:00;96118.03;;;8.75;88.96
26865;BME280;40618;51.166;10.322;2023-04-01T19:08:34;96121.44;;;8.75;89.06
26865;BME280;40618;51.166;10.322;2023-04-01T19:14:35;96132.66;;;8.74;89.33
26865;BME280;40618;51.166;10.322;2023-04-01T19:20:29;96137.97;;;8.71;88.93
26865;BME280;40618;51.166;10.322;2023-04-01T19:25:55;96147.41;;;8.72;88.93
26865;BME280;40618;51.166;10.322;2023-04-01T19:34:55;96153.16;;;8.77;88.77
26865;BME280;40618;51.166;10.322;2023-04-01T19:37:09;96154.09;;;8.76;88.99
26865;BME280;40618;51.166;10.322;2023-04-01T19:45:51;96169.59;;;8.76;89.15
26865;BME280;40618;51.166;10.322;2023-04-01T19:48:43;96173.06;;;8.75;88.88
26865;BME280;40618;51.166;10.322;2023-04-01T20:03:24;96193.19;;;8.67;88.83
26865;BME280;40618;51.166;10.322;2023-04-01T20:06:24;96196.69;;;8.66;88.71
26865;BME280;40618;51.166;10.322;2023-04-01T20:14:36;96211.56;;;8.59;88.72
26865;BME280;40618;51.166;10.322;2023-04-01T20:17:26;96216.81;;;8.58;88.50
26865;BME280;40618;51.166;10.322;2023-04-01T20:20:00;96223.78;;;8.56;88.62
26865;BME280;40618;51.166;10.322;2023-04-01T20:25:27;96230.75;;;8.54;88.51
26865;BME280;40618;51.166;10.322;2023-04-01T20:28:04;96232.56;;;8.52;88.71
26865;BME280;40618;51.166;10.322;2023-04-01T20:33:13;96243.97;;;8.44;89.05
26865;BME280;40618;51.166;10.322;2023-04-01T20:35:51;96241.47;;;8.43;89.43
26865;BME280;40618;51.166;10.322;2023-04-01T20:41:26;96254.38;;;8.43;88.59
26865;BME280;40618;51.166;10.322;2023-04-01T20:44:13;96250.88;;;8.44;88.54
26865;BME280;40618;51.166;10.322;2023-04-01T20:49:33;96257.69;;;8.46;89.05
26865;BME280;40618;51.166;10.322;2023-04-01T20:57:22;96264.75;;;8.41;88.81
26865;BME280;40618;51.166;10.322;2023-04-01T21:00:27;96268.22;;;8.40;89.03
26865;BME280;40618;51.166;10.322;2023-04-01T21:03:24;96273.31;;;8.42;88.83
26865;BME280;40618;51.166;10.322;2023-04-01T21:05:57;96279.34;;;8.42;88.70
26865;BME280;40618;51.166;10.322;2023-04-01T21:08:53;96281.81;;;8.45;89.17
26865;BME280;40618;51.166;10.322;2023-04-01T21:18:10;96286.00;;;8.48;88.93
26865;BME280;40618;51.166;10.322;2023-04-01T21:20:49;96297.09;;;8.50;89.21
26865;BME280;40618;51.166;10.322;2023-04-01T21:26:03;96304.25;;;8.43;89.05
26865;BME280;40618;51.166;10.322;2023-04-01T21:34:42;96321.69;;;8.37;89.10
26865;BME280;40618;51.166;10.322;2023-04-01T21:37:22;96326.00;;;8.36;88.51
26865;BME280;40618;51.166;10.322;2023-04-01T21:49:50;96342.19;;;8.40;88.80
26865;BME280;40618;51.166;10.322;2023-04-01T22:01:12;96356.06;;;8.37;89.09
26865;BME280;40618;51.166;10.322;2023-04-01T22:04:16;96362.97;;;8.37;89.21
26865;BME280;40618;51.166;10.322;2023-04-01T22:07:18;96362.16;;;8.35;88.91
26865;BME280;40618;51.166;10.322;2023-04-01T22:12:55;96380.81;;;8.19;88.67
26865;BME280;40618;51.166;10.322;2023-04-01T22:22:15;96403.25;;;7.70;88.20
26865;BME280;40618;51.166;10.322;2023-04-01T22:27:44;96418.44;;;7.52;89.08
26865;BME280;40618;51.166;10.322;2023-04-01T22:30:39;96423.91;;;7.43;88.02
26865;BME280;40618;51.166;10.322;2023-04-01T22:33:16;96424.97;;;7.37;87.99
26865;BME280;40618;51.166;10.322;2023-04-01T22:44:43;96447.19;;;7.13;88.73
26865;BME280;40618;51.166;10.322;2023-04-01T22:50:10;96462.22;;;7.00;88.30
26865;BME280;40618;51.166;10.322;2023-04-01T22:52:56;96459.75;;;6.97;88.29
26865;BME280;40618;51.166;10.322;2023-04-01T22:55:35;96474.59;;;6.87;88.02
26865;BME280;40618;51.166;10.322;2023-04-01T22:58:11;96491.94;;;6.82;88.52